sensor_id;sensor_type;location;lat;lon;timestamp;pressure;altitude;pressure_sealevel;temperature;humidity
38852;BME280;24605;50.092;9.182;2022-10-16T00:01:36;97697.34;;;14.34;100.00
38852;BME280;24605;50.092;9.182;2022-10-16T00:04:03;97709.94;;;14.39;100.00
38852;BME280;24605;50.092;9.182;2022-10-16T00:06:30;97641.75;;;14.09;100.00
38852;BME280;24605;50.092;9.182;2022-10-16T00:08:59;97691.31;;;14.40;100.00
38852;BME280;24605;50.092;9.182;2022-10-16T00:11:28;97677.28;;;14.40;100.00
38852;BME280;24605;50.092;9.182;2022-10-16T00:13:57;97687.84;;;14.40;100.00
38852;BME280;24605;50.092;9.182;2022-10-16T00:16:25;97688.84;;;14.39;100.00
38852;BME280;24605;50.092;9.182;2022-10-16T00:18:52;97637.66;;;14.00;100.00
38852;BME280;24605;50.092;9.182;2022-10-16T00:21:20;97677.88;;;14.29;100.00
38852;BME280;24605;50.092;9.182;2022-10-16T00:23:50;97677.06;;;14.28;100.00
38852;BME280;24605;50.092;9.182;2022-10-16T00:26:17;97692.69;;;14.30;100.00
38852;BME280;24605;50.092;9.182;2022-10-16T00:28:47;97681.75;;;14.33;100.00
38852;BME280;24605;50.092;9.182;2022-10-16T00:31:14;97676.28;;;14.28;100.00
38852;BME280;24605;50.092;9.182;2022-10-16T00:33:41;97677.69;;;14.37;100.00
38852;BME280;24605;50.092;9.182;2022-10-16T00:36:10;97640.94;;;14.15;100.00
38852;BME280;24605;50.092;9.182;2022-10-16T00:38:38;97678.72;;;14.36;100.00
38852;BME280;24605;50.092;9.182;2022-10-16T00:41:05;97658.81;;;14.26;100.00
38852;BME280;24605;50.092;9.182;2022-10-16T00:43:35;97689.06;;;14.44;100.00
38852;BME280;24605;50.092;9.182;2022-10-16T00:46:08;97696.59;;;14.40;100.00
38852;BME280;24605;50.092;9.182;2022-10-16T00:48:36;97681.94;;;14.31;100.00
38852;BME280;24605;50.092;9.182;2022-10-16T00:51:04;97693.72;;;14.42;100.00
38852;BME280;24605;50.092;9.182;2022-10-16T00:53:37;97674.25;;;14.36;100.00
38852;BME280;24605;50.092;9.182;2022-10-16T00:56:04;97690.50;;;14.60;100.00
38852;BME280;24605;50.092;9.182;2022-10-16T00:58:31;97677.50;;;14.52;100.00
38852;BME280;24605;50.092;9.182;2022-10-16T01:00:57;97704.31;;;14.62;100.00
38852;BME280;24605;50.092;9.182;2022-10-16T01:03:28;97702.09;;;14.66;100.00
38852;BME280;24605;50.092;9.182;2022-10-16T01:06:04;97697.81;;;14.65;100.00
38852;BME280;24605;50.092;9.182;2022-10-16T01:08:39;97694.16;;;14.66;100.00
38852;BME280;24605;50.092;9.182;2022-10-16T01:11:15;97652.09;;;14.17;100.00
38852;BME280;24605;50.092;9.182;2022-10-16T01:13:46;97700.25;;;14.53;100.00
38852;BME280;24605;50.092;9.182;2022-10-16T01:16:20;97694.97;;;14.53;100.00
38852;BME280;24605;50.092;9.182;2022-10-16T01:18:55;97705.50;;;14.53;100.00
38852;BME280;24605;50.092;9.182;2022-10-16T01:21:26;97678.31;;;14.39;100.00
38852;BME280;24605;50.092;9.182;2022-10-16T01:24:02;97703.09;;;14.51;100.00
38852;BME280;24605;50.092;9.182;2022-10-16T01:26:40;97704.91;;;14.51;100.00
38852;BME280;24605;50.092;9.182;2022-10-16T01:29:15;97669.19;;;14.35;100.00
38852;BME280;24605;50.092;9.182;2022-10-16T01:31:48;97714.66;;;14.50;100.00
38852;BME280;24605;50.092;9.182;2022-10-16T01:34:20;97713.25;;;14.54;100.00
38852;BME280;24605;50.092;9.182;2022-10-16T01:36:51;97719.94;;;14.57;100.00
38852;BME280;24605;50.092;9.182;2022-10-16T01:39:22;97715.69;;;14.63;100.00
38852;BME280;24605;50.092;9.182;2022-10-16T01:41:52;97722.41;;;14.65;100.00
38852;BME280;24605;50.092;9.182;2022-10-16T01:44:26;97720.13;;;14.55;100.00
38852;BME280;24605;50.092;9.182;2022-10-16T01:46:55;97731.91;;;14.60;100.00
38852;BME280;24605;50.092;9.182;2022-10-16T01:49:25;97732.72;;;14.53;100.00
38852;BME280;24605;50.092;9.182;2022-10-16T01:51:56;97739.63;;;14.54;100.00
38852;BME280;24605;50.092;9.182;2022-10-16T01:54:26;97590.50;;;13.63;100.00
38852;BME280;24605;50.092;9.182;2022-10-16T01:56:55;97735.13;;;14.48;100.00
38852;BME280;24605;50.092;9.182;2022-10-16T01:59:26;97734.16;;;14.63;100.00
38852;BME280;24605;50.092;9.182;2022-10-16T02:01:59;97726.84;;;14.58;100.00
38852;BME280;24605;50.092;9.182;2022-10-16T02:04:28;97734.97;;;14.63;100.00
38852;BME280;24605;50.092;9.182;2022-10-16T02:06:56;97716.47;;;14.56;100.00
38852;BME280;24605;50.092;9.182;2022-10-16T02:09:23;97710.97;;;14.45;100.00
38852;BME280;24605;50.092;9.182;2022-10-16T02:11:50;97722.59;;;14.57;100.00
38852;BME280;24605;50.092;9.182;2022-10-16T02:14:18;97688.66;;;14.34;100.00
38852;BME280;24605;50.092;9.182;2022-10-16T02:16:46;97680.66;;;14.07;100.00
38852;BME280;24605;50.092;9.182;2022-10-16T02:19:13;97706.28;;;14.26;100.00
38852;BME280;24605;50.092;9.182;2022-10-16T02:21:44;97736.56;;;14.44;100.00
38852;BME280;24605;50.092;9.182;2022-10-16T02:24:16;97712.94;;;14.22;100.00
38852;BME280;24605;50.092;9.182;2022-10-16T02:26:49;97735.94;;;14.42;100.00
38852;BME280;24605;50.092;9.182;2022-10-16T02:29:20;97602.69;;;13.71;100.00
38852;BME280;24605;50.092;9.182;2022-10-16T02:31:55;97744.47;;;14.44;100.00
38852;BME280;24605;50.092;9.182;2022-10-16T02:34:24;97745.06;;;14.46;100.00
38852;BME280;24605;50.092;9.182;2022-10-16T02:36:53;97746.25;;;14.37;100.00
38852;BME280;24605;50.092;9.182;2022-10-16T02:39:21;97738.34;;;14.37;100.00
38852;BME280;24605;50.092;9.182;2022-10-16T02:41:47;97745.25;;;14.38;100.00
38852;BME280;24605;50.092;9.182;2022-10-16T02:44:14;97743.44;;;14.38;100.00
38852;BME280;24605;50.092;9.182;2022-10-16T02:46:40;97731.84;;;14.33;100.00
38852;BME280;24605;50.092;9.182;2022-10-16T02:49:08;97679.59;;;13.88;100.00
38852;BME280;24605;50.092;9.182;2022-10-16T02:51:34;97744.81;;;14.28;100.00
38852;BME280;24605;50.092;9.182;2022-10-16T02:54:01;97739.09;;;14.24;100.00
38852;BME280;24605;50.092;9.182;2022-10-16T02:56:28;97693.00;;;14.00;100.00
38852;BME280;24605;50.092;9.182;2022-10-16T02:58:55;97730.84;;;14.34;100.00
38852;BME280;24605;50.092;9.182;2022-10-16T03:01:22;97730.41;;;14.23;100.00
38852;BME280;24605;50.092;9.182;2022-10-16T03:03:48;97735.88;;;14.29;100.00
38852;BME280;24605;50.092;9.182;2022-10-16T03:06:16;97735.72;;;14.44;100.00
38852;BME280;24605;50.092;9.182;2022-10-16T03:08:43;97736.53;;;14.37;100.00
38852;BME280;24605;50.092;9.182;2022-10-16T03:11:09;97580.19;;;13.26;100.00
38852;BME280;24605;50.092;9.182;2022-10-16T03:13:35;97616.13;;;13.41;100.00
38852;BME280;24605;50.092;9.182;2022-10-16T03:16:02;97749.31;;;14.34;100.00
38852;BME280;24605;50.092;9.182;2022-10-16T03:18:28;97602.81;;;13.49;100.00
38852;BME280;24605;50.092;9.182;2022-10-16T03:20:55;97757.06;;;14.49;100.00
38852;BME280;24605;50.092;9.182;2022-10-16T03:23:23;97752.97;;;14.39;100.00
38852;BME280;24605;50.092;9.182;2022-10-16T03:25:49;97757.41;;;14.39;100.00
38852;BME280;24605;50.092;9.182;2022-10-16T03:28:16;97757.44;;;14.46;100.00
38852;BME280;24605;50.092;9.182;2022-10-16T03:30:43;97740.78;;;14.32;100.00
38852;BME280;24605;50.092;9.182;2022-10-16T03:33:09;97715.78;;;14.21;100.00
38852;BME280;24605;50.092;9.182;2022-10-16T03:35:36;97746.69;;;14.40;100.00
38852;BME280;24605;50.092;9.182;2022-10-16T03:38:02;97757.06;;;14.49;100.00
38852;BME280;24605;50.092;9.182;2022-10-16T03:40:30;97717.38;;;14.15;100.00
38852;BME280;24605;50.092;9.182;2022-10-16T03:42:57;97765.75;;;14.36;100.00
38852;BME280;24605;50.092;9.182;2022-10-16T03:45:23;97765.28;;;14.25;100.00
38852;BME280;24605;50.092;9.182;2022-10-16T03:47:50;97757.56;;;14.24;100.00
38852;BME280;24605;50.092;9.182;2022-10-16T03:50:16;97766.53;;;14.36;100.00
38852;BME280;24605;50.092;9.182;2022-10-16T03:52:42;97778.56;;;14.46;100.00
38852;BME280;24605;50.092;9.182;2022-10-16T03:55:09;97778.31;;;14.34;100.00
38852;BME280;24605;50.092;9.182;2022-10-16T03:57:37;97772.28;;;14.47;100.00
38852;BME280;24605;50.092;9.182;2022-10-16T04:00:04;97773.47;;;14.44;100.00
38852;BME280;24605;50.092;9.182;2022-10-16T04:02:31;97759.88;;;14.47;100.00
38852;BME280;24605;50.092;9.182;2022-10-16T04:04:57;97770.06;;;14.57;100.00
38852;BME280;24605;50.092;9.182;2022-10-16T04:07:24;97790.97;;;14.58;100.00
38852;BME280;24605;50.092;9.182;2022-10-16T04:09:50;97785.06;;;14.50;100.00
38852;BME280;24605;50.092;9.182;2022-10-16T04:12:17;97783.84;;;14.59;100.00
38852;BME280;24605;50.092;9.182;2022-10-16T04:14:45;97788.50;;;14.50;100.00
38852;BME280;24605;50.092;9.182;2022-10-16T04:17:11;97794.84;;;14.63;100.00
38852;BME280;24605;50.092;9.182;2022-10-16T04:19:38;97797.25;;;14.57;100.00
38852;BME280;24605;50.092;9.182;2022-10-16T04:22:04;97763.53;;;14.46;100.00
38852;BME280;24605;50.092;9.182;2022-10-16T04:24:30;97808.28;;;14.68;100.00
38852;BME280;24605;50.092;9.182;2022-10-16T04:26:57;97796.03;;;14.60;100.00
38852;BME280;24605;50.092;9.182;2022-10-16T04:29:23;97773.66;;;14.42;100.00
38852;BME280;24605;50.092;9.182;2022-10-16T04:31:51;97788.50;;;14.50;100.00
38852;BME280;24605;50.092;9.182;2022-10-16T04:34:18;97738.53;;;14.35;100.00
38852;BME280;24605;50.092;9.182;2022-10-16T04:36:47;97778.66;;;14.72;100.00
38852;BME280;24605;50.092;9.182;2022-10-16T04:39:13;97785.16;;;14.70;100.00
38852;BME280;24605;50.092;9.182;2022-10-16T04:41:40;97764.78;;;14.57;100.00
38852;BME280;24605;50.092;9.182;2022-10-16T04:44:06;97808.28;;;14.81;100.00
38852;BME280;24605;50.092;9.182;2022-10-16T04:46:33;97807.72;;;14.79;100.00
38852;BME280;24605;50.092;9.182;2022-10-16T04:49:01;97800.19;;;14.76;100.00
38852;BME280;24605;50.092;9.182;2022-10-16T04:51:27;97812.97;;;14.79;100.00
38852;BME280;24605;50.092;9.182;2022-10-16T04:53:54;97823.94;;;14.83;100.00
38852;BME280;24605;50.092;9.182;2022-10-16T04:56:20;97788.28;;;14.38;100.00
38852;BME280;24605;50.092;9.182;2022-10-16T04:58:47;97808.22;;;14.61;100.00
38852;BME280;24605;50.092;9.182;2022-10-16T05:01:13;97789.56;;;14.63;100.00
38852;BME280;24605;50.092;9.182;2022-10-16T05:03:40;97803.84;;;14.82;100.00
38852;BME280;24605;50.092;9.182;2022-10-16T05:06:08;97801.41;;;14.80;100.00
38852;BME280;24605;50.092;9.182;2022-10-16T05:08:34;97803.81;;;14.75;100.00
38852;BME280;24605;50.092;9.182;2022-10-16T05:11:00;97802.84;;;14.83;100.00
38852;BME280;24605;50.092;9.182;2022-10-16T05:13:27;97806.25;;;14.70;100.00
38852;BME280;24605;50.092;9.182;2022-10-16T05:15:54;97804.97;;;14.52;100.00
38852;BME280;24605;50.092;9.182;2022-10-16T05:18:20;97803.94;;;14.53;100.00
38852;BME280;24605;50.092;9.182;2022-10-16T05:20:46;97791.19;;;14.57;100.00
38852;BME280;24605;50.092;9.182;2022-10-16T05:23:14;97791.59;;;14.61;100.00
38852;BME280;24605;50.092;9.182;2022-10-16T05:25:41;97753.75;;;14.33;100.00
38852;BME280;24605;50.092;9.182;2022-10-16T05:28:07;97777.91;;;14.37;100.00
38852;BME280;24605;50.092;9.182;2022-10-16T05:30:34;97799.66;;;14.46;100.00
38852;BME280;24605;50.092;9.182;2022-10-16T05:33:02;97776.47;;;14.28;100.00
38852;BME280;24605;50.092;9.182;2022-10-16T05:35:29;97776.06;;;14.31;100.00
38852;BME280;24605;50.092;9.182;2022-10-16T05:37:55;97813.47;;;14.48;100.00
38852;BME280;24605;50.092;9.182;2022-10-16T05:40:23;97800.69;;;14.51;100.00
38852;BME280;24605;50.092;9.182;2022-10-16T05:42:54;97798.44;;;14.48;100.00
38852;BME280;24605;50.092;9.182;2022-10-16T05:45:21;97760.69;;;14.41;100.00
38852;BME280;24605;50.092;9.182;2022-10-16T05:47:47;97804.13;;;14.52;100.00
38852;BME280;24605;50.092;9.182;2022-10-16T05:50:14;97815.72;;;14.57;100.00
38852;BME280;24605;50.092;9.182;2022-10-16T05:52:40;97830.41;;;14.67;100.00
38852;BME280;24605;50.092;9.182;2022-10-16T05:55:07;97805.34;;;14.49;100.00
38852;BME280;24605;50.092;9.182;2022-10-16T05:57:35;97833.94;;;14.46;100.00
38852;BME280;24605;50.092;9.182;2022-10-16T06:00:03;97800.47;;;14.53;100.00
38852;BME280;24605;50.092;9.182;2022-10-16T06:02:30;97807.19;;;14.55;100.00
38852;BME280;24605;50.092;9.182;2022-10-16T06:04:56;97819.03;;;14.73;100.00
38852;BME280;24605;50.092;9.182;2022-10-16T06:07:23;97834.44;;;14.63;100.00
38852;BME280;24605;50.092;9.182;2022-10-16T06:09:50;97826.38;;;14.71;100.00
38852;BME280;24605;50.092;9.182;2022-10-16T06:12:16;97829.00;;;14.71;100.00
38852;BME280;24605;50.092;9.182;2022-10-16T06:14:44;97837.31;;;14.81;100.00
38852;BME280;24605;50.092;9.182;2022-10-16T06:17:12;97836.34;;;14.89;100.00
38852;BME280;24605;50.092;9.182;2022-10-16T06:19:38;97843.19;;;14.70;100.00
38852;BME280;24605;50.092;9.182;2022-10-16T06:22:05;97843.94;;;14.64;100.00
38852;BME280;24605;50.092;9.182;2022-10-16T06:24:31;97850.50;;;14.68;100.00
38852;BME280;24605;50.092;9.182;2022-10-16T06:26:58;97841.56;;;14.69;100.00
38852;BME280;24605;50.092;9.182;2022-10-16T06:29:24;97863.34;;;14.84;100.00
38852;BME280;24605;50.092;9.182;2022-10-16T06:31:52;97855.66;;;14.90;100.00
38852;BME280;24605;50.092;9.182;2022-10-16T06:34:18;97843.66;;;14.80;100.00
38852;BME280;24605;50.092;9.182;2022-10-16T06:36:45;97862.31;;;14.85;100.00
38852;BME280;24605;50.092;9.182;2022-10-16T06:39:11;97865.16;;;14.91;100.00
38852;BME280;24605;50.092;9.182;2022-10-16T06:41:38;97867.63;;;14.92;100.00
38852;BME280;24605;50.092;9.182;2022-10-16T06:44:05;97876.41;;;15.06;100.00
38852;BME280;24605;50.092;9.182;2022-10-16T06:46:32;97881.03;;;14.97;100.00
38852;BME280;24605;50.092;9.182;2022-10-16T06:49:00;97886.38;;;15.11;100.00
38852;BME280;24605;50.092;9.182;2022-10-16T06:51:26;97889.59;;;15.13;100.00
38852;BME280;24605;50.092;9.182;2022-10-16T06:53:54;97890.03;;;15.10;100.00
38852;BME280;24605;50.092;9.182;2022-10-16T06:56:23;97889.84;;;15.18;100.00
38852;BME280;24605;50.092;9.182;2022-10-16T06:58:50;97853.66;;;15.05;100.00
38852;BME280;24605;50.092;9.182;2022-10-16T07:01:19;97857.72;;;15.08;100.00
38852;BME280;24605;50.092;9.182;2022-10-16T07:03:46;97893.69;;;15.15;100.00
38852;BME280;24605;50.092;9.182;2022-10-16T07:06:16;97893.28;;;15.18;100.00
38852;BME280;24605;50.092;9.182;2022-10-16T07:08:45;97898.56;;;15.25;100.00
38852;BME280;24605;50.092;9.182;2022-10-16T07:11:14;97892.91;;;15.28;100.00
38852;BME280;24605;50.092;9.182;2022-10-16T07:13:42;97903.88;;;15.32;100.00
38852;BME280;24605;50.092;9.182;2022-10-16T07:16:11;97903.47;;;15.42;100.00
38852;BME280;24605;50.092;9.182;2022-10-16T07:18:38;97909.59;;;15.56;100.00
38852;BME280;24605;50.092;9.182;2022-10-16T07:21:06;97903.72;;;15.60;100.00
38852;BME280;24605;50.092;9.182;2022-10-16T07:23:33;97869.16;;;15.48;100.00
38852;BME280;24605;50.092;9.182;2022-10-16T07:26:00;97885.00;;;15.69;100.00
38852;BME280;24605;50.092;9.182;2022-10-16T07:28:27;97912.47;;;15.74;100.00
38852;BME280;24605;50.092;9.182;2022-10-16T07:30:54;97894.97;;;15.73;100.00
38852;BME280;24605;50.092;9.182;2022-10-16T07:33:21;97891.09;;;15.69;100.00
38852;BME280;24605;50.092;9.182;2022-10-16T07:35:49;97918.81;;;15.87;100.00
38852;BME280;24605;50.092;9.182;2022-10-16T07:38:16;97927.75;;;16.12;100.00
38852;BME280;24605;50.092;9.182;2022-10-16T07:40:43;97897.03;;;15.85;100.00
38852;BME280;24605;50.092;9.182;2022-10-16T07:43:10;97905.78;;;15.98;100.00
38852;BME280;24605;50.092;9.182;2022-10-16T07:45:37;97886.25;;;15.93;100.00
38852;BME280;24605;50.092;9.182;2022-10-16T07:48:04;97929.75;;;15.97;100.00
38852;BME280;24605;50.092;9.182;2022-10-16T07:50:30;97936.50;;;16.00;100.00
38852;BME280;24605;50.092;9.182;2022-10-16T07:52:57;97932.41;;;16.10;100.00
38852;BME280;24605;50.092;9.182;2022-10-16T07:55:23;97933.44;;;16.03;100.00
38852;BME280;24605;50.092;9.182;2022-10-16T07:57:51;97925.47;;;15.82;100.00
38852;BME280;24605;50.092;9.182;2022-10-16T08:00:17;97944.00;;;15.96;100.00
38852;BME280;24605;50.092;9.182;2022-10-16T08:02:44;97922.19;;;15.74;100.00
38852;BME280;24605;50.092;9.182;2022-10-16T08:05:11;97952.31;;;15.79;100.00
38852;BME280;24605;50.092;9.182;2022-10-16T08:07:38;97978.34;;;15.82;100.00
38852;BME280;24605;50.092;9.182;2022-10-16T08:10:05;97919.75;;;15.52;100.00
38852;BME280;24605;50.092;9.182;2022-10-16T08:12:32;97973.91;;;15.90;100.00
38852;BME280;24605;50.092;9.182;2022-10-16T08:15:00;97956.38;;;15.69;100.00
38852;BME280;24605;50.092;9.182;2022-10-16T08:17:26;97968.22;;;15.86;100.00
38852;BME280;24605;50.092;9.182;2022-10-16T08:19:53;97967.56;;;15.77;100.00
38852;BME280;24605;50.092;9.182;2022-10-16T08:22:20;97981.63;;;15.98;100.00
38852;BME280;24605;50.092;9.182;2022-10-16T08:24:46;97925.06;;;15.59;100.00
38852;BME280;24605;50.092;9.182;2022-10-16T08:27:13;97918.16;;;15.64;100.00
38852;BME280;24605;50.092;9.182;2022-10-16T08:29:39;97963.75;;;15.87;100.00
38852;BME280;24605;50.092;9.182;2022-10-16T08:32:07;97968.34;;;15.71;100.00
38852;BME280;24605;50.092;9.182;2022-10-16T08:34:33;97988.34;;;15.87;100.00
38852;BME280;24605;50.092;9.182;2022-10-16T08:37:00;97989.38;;;16.00;100.00
38852;BME280;24605;50.092;9.182;2022-10-16T08:39:27;97994.66;;;16.00;100.00
38852;BME280;24605;50.092;9.182;2022-10-16T08:42:18;97965.75;;;15.91;100.00
38852;BME280;24605;50.092;9.182;2022-10-16T08:45:02;98006.66;;;16.16;100.00
38852;BME280;24605;50.092;9.182;2022-10-16T08:47:43;97990.16;;;16.13;100.00
38852;BME280;24605;50.092;9.182;2022-10-16T08:50:14;98018.66;;;16.45;100.00
38852;BME280;24605;50.092;9.182;2022-10-16T08:52:43;98024.16;;;16.50;100.00
38852;BME280;24605;50.092;9.182;2022-10-16T08:55:19;98027.00;;;16.55;100.00
38852;BME280;24605;50.092;9.182;2022-10-16T08:57:49;98028.00;;;16.54;100.00
38852;BME280;24605;50.092;9.182;2022-10-16T09:00:16;98031.88;;;16.45;100.00
38852;BME280;24605;50.092;9.182;2022-10-16T09:02:53;98036.16;;;16.53;100.00
38852;BME280;24605;50.092;9.182;2022-10-16T09:08:29;97979.41;;;16.15;100.00
38852;BME280;24605;50.092;9.182;2022-10-16T09:11:05;98047.56;;;16.60;100.00
38852;BME280;24605;50.092;9.182;2022-10-16T09:13:40;98036.97;;;16.60;100.00
38852;BME280;24605;50.092;9.182;2022-10-16T09:16:15;98047.16;;;16.63;100.00
38852;BME280;24605;50.092;9.182;2022-10-16T09:18:50;98000.38;;;16.23;100.00
38852;BME280;24605;50.092;9.182;2022-10-16T09:21:21;98051.81;;;16.68;100.00
38852;BME280;24605;50.092;9.182;2022-10-16T09:23:50;98059.78;;;16.68;100.00
38852;BME280;24605;50.092;9.182;2022-10-16T09:26:17;98059.34;;;16.71;100.00
38852;BME280;24605;50.092;9.182;2022-10-16T09:28:45;98055.09;;;16.50;100.00
38852;BME280;24605;50.092;9.182;2022-10-16T09:31:15;98067.31;;;16.57;100.00
38852;BME280;24605;50.092;9.182;2022-10-16T09:33:47;98069.31;;;16.82;100.00
38852;BME280;24605;50.092;9.182;2022-10-16T09:36:15;98035.72;;;16.69;100.00
38852;BME280;24605;50.092;9.182;2022-10-16T09:38:42;98076.63;;;17.07;100.00
38852;BME280;24605;50.092;9.182;2022-10-16T09:41:15;98075.44;;;17.03;100.00
38852;BME280;24605;50.092;9.182;2022-10-16T09:43:47;98083.38;;;17.03;100.00
38852;BME280;24605;50.092;9.182;2022-10-16T09:46:24;98089.22;;;17.32;100.00
38852;BME280;24605;50.092;9.182;2022-10-16T09:48:54;98086.75;;;17.30;100.00
38852;BME280;24605;50.092;9.182;2022-10-16T09:51:24;98099.19;;;17.30;100.00
38852;BME280;24605;50.092;9.182;2022-10-16T09:53:55;98095.94;;;17.28;100.00
38852;BME280;24605;50.092;9.182;2022-10-16T09:56:23;98107.72;;;17.38;100.00
38852;BME280;24605;50.092;9.182;2022-10-16T09:58:51;98103.94;;;17.73;100.00
38852;BME280;24605;50.092;9.182;2022-10-16T10:01:19;98117.09;;;17.86;100.00
38852;BME280;24605;50.092;9.182;2022-10-16T10:03:46;98115.69;;;17.84;100.00
38852;BME280;24605;50.092;9.182;2022-10-16T10:06:24;98085.88;;;17.89;100.00
38852;BME280;24605;50.092;9.182;2022-10-16T10:08:59;98114.50;;;17.80;100.00
38852;BME280;24605;50.092;9.182;2022-10-16T10:11:44;98100.91;;;17.63;100.00
38852;BME280;24605;50.092;9.182;2022-10-16T10:14:18;98115.03;;;18.02;100.00
38852;BME280;24605;50.092;9.182;2022-10-16T10:16:46;98115.03;;;17.95;100.00
38852;BME280;24605;50.092;9.182;2022-10-16T10:19:15;98112.38;;;17.95;100.00
38852;BME280;24605;50.092;9.182;2022-10-16T10:21:43;98114.72;;;18.17;100.00
38852;BME280;24605;50.092;9.182;2022-10-16T10:24:11;98072.03;;;17.86;100.00
38852;BME280;24605;50.092;9.182;2022-10-16T10:26:38;98073.63;;;17.94;100.00
38852;BME280;24605;50.092;9.182;2022-10-16T10:29:14;98103.44;;;18.28;100.00
38852;BME280;24605;50.092;9.182;2022-10-16T10:31:50;98056.78;;;18.14;100.00
38852;BME280;24605;50.092;9.182;2022-10-16T10:34:32;98120.28;;;18.91;100.00
38852;BME280;24605;50.092;9.182;2022-10-16T10:37:08;98058.25;;;18.60;100.00
38852;BME280;24605;50.092;9.182;2022-10-16T10:39:43;98129.22;;;19.22;100.00
38852;BME280;24605;50.092;9.182;2022-10-16T10:42:22;98126.63;;;19.16;100.00
38852;BME280;24605;50.092;9.182;2022-10-16T10:45:01;98096.28;;;18.54;100.00
38852;BME280;24605;50.092;9.182;2022-10-16T10:47:39;98131.31;;;18.95;100.00
38852;BME280;24605;50.092;9.182;2022-10-16T10:50:12;98122.94;;;18.98;100.00
38852;BME280;24605;50.092;9.182;2022-10-16T10:53:06;98115.63;;;18.61;100.00
38852;BME280;24605;50.092;9.182;2022-10-16T10:55:49;97986.72;;;17.96;100.00
38852;BME280;24605;50.092;9.182;2022-10-16T10:58:40;98115.25;;;19.08;100.00
38852;BME280;24605;50.092;9.182;2022-10-16T11:01:12;98109.63;;;18.73;100.00
38852;BME280;24605;50.092;9.182;2022-10-16T11:03:55;98110.22;;;19.00;100.00
38852;BME280;24605;50.092;9.182;2022-10-16T11:06:26;98114.88;;;19.05;100.00
38852;BME280;24605;50.092;9.182;2022-10-16T11:09:00;98106.88;;;19.79;100.00
38852;BME280;24605;50.092;9.182;2022-10-16T11:11:32;98109.47;;;20.16;100.00
38852;BME280;24605;50.092;9.182;2022-10-16T11:14:04;98067.28;;;19.90;100.00
38852;BME280;24605;50.092;9.182;2022-10-16T11:16:36;98099.53;;;20.24;100.00
38852;BME280;24605;50.092;9.182;2022-10-16T11:19:12;98065.47;;;19.53;100.00
38852;BME280;24605;50.092;9.182;2022-10-16T11:21:44;98096.22;;;19.49;100.00
38852;BME280;24605;50.092;9.182;2022-10-16T11:24:21;98070.06;;;19.27;100.00
38852;BME280;24605;50.092;9.182;2022-10-16T11:26:49;98096.41;;;19.66;100.00
38852;BME280;24605;50.092;9.182;2022-10-16T11:29:22;98096.25;;;19.79;100.00
38852;BME280;24605;50.092;9.182;2022-10-16T11:31:53;98095.97;;;19.87;100.00
38852;BME280;24605;50.092;9.182;2022-10-16T11:34:25;98106.13;;;19.41;100.00
38852;BME280;24605;50.092;9.182;2022-10-16T11:36:58;98106.63;;;19.32;100.00
38852;BME280;24605;50.092;9.182;2022-10-16T11:39:30;98110.53;;;19.48;100.00
38852;BME280;24605;50.092;9.182;2022-10-16T11:42:02;98100.84;;;19.72;100.00
38852;BME280;24605;50.092;9.182;2022-10-16T11:44:44;98072.41;;;20.03;100.00
38852;BME280;24605;50.092;9.182;2022-10-16T11:47:23;98089.91;;;20.11;100.00
38852;BME280;24605;50.092;9.182;2022-10-16T11:49:57;98102.03;;;20.61;100.00
38852;BME280;24605;50.092;9.182;2022-10-16T11:52:33;98108.06;;;20.56;100.00
38852;BME280;24605;50.092;9.182;2022-10-16T11:55:13;98108.88;;;20.69;100.00
38852;BME280;24605;50.092;9.182;2022-10-16T11:57:44;98110.31;;;20.83;97.11
38852;BME280;24605;50.092;9.182;2022-10-16T12:00:21;98108.59;;;20.46;100.00
38852;BME280;24605;50.092;9.182;2022-10-16T12:02:56;98115.66;;;19.98;100.00
38852;BME280;24605;50.092;9.182;2022-10-16T12:05:33;98105.84;;;19.99;100.00
38852;BME280;24605;50.092;9.182;2022-10-16T12:08:08;98090.31;;;19.96;100.00
38852;BME280;24605;50.092;9.182;2022-10-16T12:10:48;98106.88;;;20.52;100.00
38852;BME280;24605;50.092;9.182;2022-10-16T12:13:30;98068.44;;;20.60;100.00
38852;BME280;24605;50.092;9.182;2022-10-16T12:16:18;97961.25;;;19.75;100.00
38852;BME280;24605;50.092;9.182;2022-10-16T12:19:09;98047.06;;;20.12;100.00
38852;BME280;24605;50.092;9.182;2022-10-16T12:21:57;98026.38;;;20.14;100.00
38852;BME280;24605;50.092;9.182;2022-10-16T12:24:36;98038.66;;;20.63;100.00
38852;BME280;24605;50.092;9.182;2022-10-16T12:27:27;98118.41;;;20.88;99.79
38852;BME280;24605;50.092;9.182;2022-10-16T12:30:14;97945.19;;;19.81;100.00
38852;BME280;24605;50.092;9.182;2022-10-16T12:32:56;98072.06;;;20.77;98.60
38852;BME280;24605;50.092;9.182;2022-10-16T12:35:26;97976.59;;;20.03;98.39
38852;BME280;24605;50.092;9.182;2022-10-16T12:38:17;97974.84;;;19.85;100.00
38852;BME280;24605;50.092;9.182;2022-10-16T12:40:59;98056.50;;;20.27;100.00
38852;BME280;24605;50.092;9.182;2022-10-16T12:43:46;98118.53;;;20.27;100.00
38852;BME280;24605;50.092;9.182;2022-10-16T12:46:38;97967.53;;;18.82;100.00
38852;BME280;24605;50.092;9.182;2022-10-16T12:49:30;98089.41;;;19.53;100.00
38852;BME280;24605;50.092;9.182;2022-10-16T12:52:27;98118.88;;;19.70;100.00
38852;BME280;24605;50.092;9.182;2022-10-16T12:55:04;98128.75;;;19.81;100.00
38852;BME280;24605;50.092;9.182;2022-10-16T12:58:00;97938.09;;;18.28;100.00
38852;BME280;24605;50.092;9.182;2022-10-16T13:00:45;98128.72;;;19.51;100.00
38852;BME280;24605;50.092;9.182;2022-10-16T13:03:33;98101.59;;;19.42;100.00
38852;BME280;24605;50.092;9.182;2022-10-16T13:06:21;98140.44;;;19.99;100.00
38852;BME280;24605;50.092;9.182;2022-10-16T13:09:34;98017.00;;;19.20;100.00
38852;BME280;24605;50.092;9.182;2022-10-16T13:12:46;98074.81;;;19.44;100.00